<?xml version="1.0" encoding="UTF-8" standalone="no" ?>
<gpx xmlns="http://www.topografix.com/GPX/1/1" xmlns:xsi="http://www.w3.org/2001/XMLSchema-instance" xsi:schemaLocation="http://www.topografix.com/GPX/1/1 http://www.topografix.com/GPX/1/1/gpx.xsd" version="1.1" creator="VisuGPX - https://www.visugpx.com">
  <metadata>
    <name>Mas de l\'Estagnol - Saint Guilhem le Désert</name>
    <desc><![CDATA[Petite balade dans la forêt domaniale de Saint Guilhem le Désert 
objectif le Mas de l\'Estagnol]]></desc>
  </metadata>
  <trk>
    <name><![CDATA[8 mai 2012 12:35:14]]></name>
    <cmt><![CDATA[8 mai 2012 12:35:14]]></cmt>
    <trkseg>
      <trkpt lat="43.74436" lon="3.56209">
        <ele>82</ele>
        <time>2012-05-08T10:35:14Z</time>
      </trkpt>
      <trkpt lat="43.74433" lon="3.56223">
        <ele>78</ele>
        <time>2012-05-08T10:36:35Z</time>
      </trkpt>
      <trkpt lat="43.74434" lon="3.56278">
        <ele>78</ele>
        <time>2012-05-08T10:37:10Z</time>
      </trkpt>
      <trkpt lat="43.74434" lon="3.56299">
        <ele>77</ele>
        <time>2012-05-08T10:37:25Z</time>
      </trkpt>
      <trkpt lat="43.74432" lon="3.56306">
        <ele>77</ele>
        <time>2012-05-08T10:37:31Z</time>
      </trkpt>
      <trkpt lat="43.74431" lon="3.56309">
        <ele>76</ele>
        <time>2012-05-08T10:37:37Z</time>
      </trkpt>
      <trkpt lat="43.74432" lon="3.56317">
        <ele>76</ele>
        <time>2012-05-08T10:38:03Z</time>
      </trkpt>
      <trkpt lat="43.74438" lon="3.56322">
        <ele>78</ele>
        <time>2012-05-08T10:38:48Z</time>
      </trkpt>
      <trkpt lat="43.74443" lon="3.56321">
        <ele>78</ele>
        <time>2012-05-08T10:38:57Z</time>
      </trkpt>
      <trkpt lat="43.74447" lon="3.56322">
        <ele>80</ele>
        <time>2012-05-08T10:39:14Z</time>
      </trkpt>
      <trkpt lat="43.74463" lon="3.5632">
        <ele>76</ele>
        <time>2012-05-08T10:39:39Z</time>
      </trkpt>
      <trkpt lat="43.74469" lon="3.56319">
        <ele>76</ele>
        <time>2012-05-08T10:39:47Z</time>
      </trkpt>
      <trkpt lat="43.74474" lon="3.56316">
        <ele>76</ele>
        <time>2012-05-08T10:39:53Z</time>
      </trkpt>
      <trkpt lat="43.74483" lon="3.56314">
        <ele>74</ele>
        <time>2012-05-08T10:40:09Z</time>
      </trkpt>
      <trkpt lat="43.74488" lon="3.56316">
        <ele>71</ele>
        <time>2012-05-08T10:40:23Z</time>
      </trkpt>
      <trkpt lat="43.74531" lon="3.56317">
        <ele>78</ele>
        <time>2012-05-08T10:40:56Z</time>
      </trkpt>
      <trkpt lat="43.74548" lon="3.5631">
        <ele>82</ele>
        <time>2012-05-08T10:41:16Z</time>
      </trkpt>
      <trkpt lat="43.74556" lon="3.56307">
        <ele>82</ele>
        <time>2012-05-08T10:41:22Z</time>
      </trkpt>
      <trkpt lat="43.7456" lon="3.56303">
        <ele>83</ele>
        <time>2012-05-08T10:41:27Z</time>
      </trkpt>
      <trkpt lat="43.74565" lon="3.56302">
        <ele>83</ele>
        <time>2012-05-08T10:41:32Z</time>
      </trkpt>
      <trkpt lat="43.7457" lon="3.56302">
        <ele>82</ele>
        <time>2012-05-08T10:41:39Z</time>
      </trkpt>
      <trkpt lat="43.7458" lon="3.56299">
        <ele>84</ele>
        <time>2012-05-08T10:41:50Z</time>
      </trkpt>
      <trkpt lat="43.74589" lon="3.56304">
        <ele>85</ele>
        <time>2012-05-08T10:42:01Z</time>
      </trkpt>
      <trkpt lat="43.74598" lon="3.56309">
        <ele>85</ele>
        <time>2012-05-08T10:42:08Z</time>
      </trkpt>
      <trkpt lat="43.74605" lon="3.56314">
        <ele>78</ele>
        <time>2012-05-08T10:42:18Z</time>
      </trkpt>
      <trkpt lat="43.74605" lon="3.56325">
        <ele>73</ele>
        <time>2012-05-08T10:42:35Z</time>
      </trkpt>
      <trkpt lat="43.74618" lon="3.56325">
        <ele>74</ele>
        <time>2012-05-08T10:43:00Z</time>
      </trkpt>
      <trkpt lat="43.74631" lon="3.5633">
        <ele>79</ele>
        <time>2012-05-08T10:43:20Z</time>
      </trkpt>
      <trkpt lat="43.7464" lon="3.56328">
        <ele>80</ele>
        <time>2012-05-08T10:43:28Z</time>
      </trkpt>
      <trkpt lat="43.74648" lon="3.56323">
        <ele>81</ele>
        <time>2012-05-08T10:43:39Z</time>
      </trkpt>
      <trkpt lat="43.74651" lon="3.56312">
        <ele>83</ele>
        <time>2012-05-08T10:43:52Z</time>
      </trkpt>
      <trkpt lat="43.7465" lon="3.56301">
        <ele>87</ele>
        <time>2012-05-08T10:44:03Z</time>
      </trkpt>
      <trkpt lat="43.74649" lon="3.56295">
        <ele>88</ele>
        <time>2012-05-08T10:44:07Z</time>
      </trkpt>
      <trkpt lat="43.74641" lon="3.56275">
        <ele>87</ele>
        <time>2012-05-08T10:44:22Z</time>
      </trkpt>
      <trkpt lat="43.74636" lon="3.56253">
        <ele>90</ele>
        <time>2012-05-08T10:44:50Z</time>
      </trkpt>
      <trkpt lat="43.74634" lon="3.56247">
        <ele>88</ele>
        <time>2012-05-08T10:45:07Z</time>
      </trkpt>
      <trkpt lat="43.7464" lon="3.56236">
        <ele>87</ele>
        <time>2012-05-08T10:45:14Z</time>
      </trkpt>
      <trkpt lat="43.74646" lon="3.56224">
        <ele>87</ele>
        <time>2012-05-08T10:45:20Z</time>
      </trkpt>
      <trkpt lat="43.74645" lon="3.5621">
        <ele>86</ele>
        <time>2012-05-08T10:45:27Z</time>
      </trkpt>
      <trkpt lat="43.74647" lon="3.56204">
        <ele>85</ele>
        <time>2012-05-08T10:45:32Z</time>
      </trkpt>
      <trkpt lat="43.74662" lon="3.56185">
        <ele>82</ele>
        <time>2012-05-08T10:45:50Z</time>
      </trkpt>
      <trkpt lat="43.74674" lon="3.5617">
        <ele>85</ele>
        <time>2012-05-08T10:46:02Z</time>
      </trkpt>
      <trkpt lat="43.74687" lon="3.56157">
        <ele>84</ele>
        <time>2012-05-08T10:46:15Z</time>
      </trkpt>
      <trkpt lat="43.74698" lon="3.56135">
        <ele>82</ele>
        <time>2012-05-08T10:46:32Z</time>
      </trkpt>
      <trkpt lat="43.74703" lon="3.56122">
        <ele>83</ele>
        <time>2012-05-08T10:46:41Z</time>
      </trkpt>
      <trkpt lat="43.7472" lon="3.56099">
        <ele>89</ele>
        <time>2012-05-08T10:47:03Z</time>
      </trkpt>
      <trkpt lat="43.74735" lon="3.56094">
        <ele>88</ele>
        <time>2012-05-08T10:47:16Z</time>
      </trkpt>
      <trkpt lat="43.7474" lon="3.56093">
        <ele>88</ele>
        <time>2012-05-08T10:47:20Z</time>
      </trkpt>
      <trkpt lat="43.74745" lon="3.56092">
        <ele>90</ele>
        <time>2012-05-08T10:47:24Z</time>
      </trkpt>
      <trkpt lat="43.7476" lon="3.56085">
        <ele>92</ele>
        <time>2012-05-08T10:47:37Z</time>
      </trkpt>
      <trkpt lat="43.74765" lon="3.56084">
        <ele>92</ele>
        <time>2012-05-08T10:47:41Z</time>
      </trkpt>
      <trkpt lat="43.74776" lon="3.56082">
        <ele>89</ele>
        <time>2012-05-08T10:47:55Z</time>
      </trkpt>
      <trkpt lat="43.7478" lon="3.56078">
        <ele>89</ele>
        <time>2012-05-08T10:48:09Z</time>
      </trkpt>
      <trkpt lat="43.74794" lon="3.56083">
        <ele>92</ele>
        <time>2012-05-08T10:48:20Z</time>
      </trkpt>
      <trkpt lat="43.74802" lon="3.56085">
        <ele>91</ele>
        <time>2012-05-08T10:48:28Z</time>
      </trkpt>
      <trkpt lat="43.74807" lon="3.56087">
        <ele>91</ele>
        <time>2012-05-08T10:48:33Z</time>
      </trkpt>
      <trkpt lat="43.74811" lon="3.56089">
        <ele>91</ele>
        <time>2012-05-08T10:48:41Z</time>
      </trkpt>
      <trkpt lat="43.7482" lon="3.56097">
        <ele>92</ele>
        <time>2012-05-08T10:48:50Z</time>
      </trkpt>
      <trkpt lat="43.74835" lon="3.56101">
        <ele>92</ele>
        <time>2012-05-08T10:49:03Z</time>
      </trkpt>
      <trkpt lat="43.74844" lon="3.56108">
        <ele>91</ele>
        <time>2012-05-08T10:49:13Z</time>
      </trkpt>
      <trkpt lat="43.74849" lon="3.56108">
        <ele>90</ele>
        <time>2012-05-08T10:49:20Z</time>
      </trkpt>
      <trkpt lat="43.74863" lon="3.56121">
        <ele>87</ele>
        <time>2012-05-08T10:49:44Z</time>
      </trkpt>
      <trkpt lat="43.74886" lon="3.56153">
        <ele>93</ele>
        <time>2012-05-08T10:50:24Z</time>
      </trkpt>
      <trkpt lat="43.74893" lon="3.56162">
        <ele>95</ele>
        <time>2012-05-08T10:50:32Z</time>
      </trkpt>
      <trkpt lat="43.749" lon="3.56171">
        <ele>95</ele>
        <time>2012-05-08T10:50:40Z</time>
      </trkpt>
      <trkpt lat="43.74917" lon="3.5618">
        <ele>99</ele>
        <time>2012-05-08T10:50:59Z</time>
      </trkpt>
      <trkpt lat="43.74926" lon="3.56182">
        <ele>100</ele>
        <time>2012-05-08T10:51:12Z</time>
      </trkpt>
      <trkpt lat="43.74937" lon="3.56191">
        <ele>102</ele>
        <time>2012-05-08T10:51:24Z</time>
      </trkpt>
      <trkpt lat="43.74946" lon="3.56197">
        <ele>101</ele>
        <time>2012-05-08T10:51:32Z</time>
      </trkpt>
      <trkpt lat="43.74957" lon="3.56197">
        <ele>101</ele>
        <time>2012-05-08T10:51:44Z</time>
      </trkpt>
      <trkpt lat="43.74987" lon="3.56194">
        <ele>107</ele>
        <time>2012-05-08T10:52:15Z</time>
      </trkpt>
      <trkpt lat="43.75006" lon="3.56165">
        <ele>119</ele>
        <time>2012-05-08T10:52:54Z</time>
      </trkpt>
      <trkpt lat="43.75014" lon="3.56158">
        <ele>120</ele>
        <time>2012-05-08T10:53:10Z</time>
      </trkpt>
      <trkpt lat="43.7502" lon="3.56129">
        <ele>116</ele>
        <time>2012-05-08T10:53:35Z</time>
      </trkpt>
      <trkpt lat="43.75022" lon="3.56116">
        <ele>116</ele>
        <time>2012-05-08T10:53:44Z</time>
      </trkpt>
      <trkpt lat="43.75024" lon="3.56103">
        <ele>118</ele>
        <time>2012-05-08T10:53:56Z</time>
      </trkpt>
      <trkpt lat="43.75031" lon="3.5609">
        <ele>120</ele>
        <time>2012-05-08T10:54:12Z</time>
      </trkpt>
      <trkpt lat="43.75037" lon="3.56095">
        <ele>121</ele>
        <time>2012-05-08T10:54:34Z</time>
      </trkpt>
      <trkpt lat="43.75043" lon="3.56105">
        <ele>121</ele>
        <time>2012-05-08T10:54:44Z</time>
      </trkpt>
      <trkpt lat="43.75051" lon="3.56105">
        <ele>121</ele>
        <time>2012-05-08T10:55:14Z</time>
      </trkpt>
      <trkpt lat="43.75055" lon="3.56139">
        <ele>119</ele>
        <time>2012-05-08T10:55:48Z</time>
      </trkpt>
      <trkpt lat="43.7506" lon="3.56134">
        <ele>125</ele>
        <time>2012-05-08T10:56:05Z</time>
      </trkpt>
      <trkpt lat="43.75068" lon="3.56125">
        <ele>128</ele>
        <time>2012-05-08T10:56:18Z</time>
      </trkpt>
      <trkpt lat="43.75096" lon="3.56119">
        <ele>136</ele>
        <time>2012-05-08T10:56:48Z</time>
      </trkpt>
      <trkpt lat="43.75124" lon="3.56127">
        <ele>145</ele>
        <time>2012-05-08T10:57:20Z</time>
      </trkpt>
      <trkpt lat="43.75151" lon="3.5614">
        <ele>152</ele>
        <time>2012-05-08T10:57:52Z</time>
      </trkpt>
      <trkpt lat="43.75161" lon="3.56147">
        <ele>151</ele>
        <time>2012-05-08T10:57:57Z</time>
      </trkpt>
      <trkpt lat="43.7519" lon="3.56167">
        <ele>143</ele>
        <time>2012-05-08T10:58:31Z</time>
      </trkpt>
      <trkpt lat="43.75204" lon="3.56168">
        <ele>137</ele>
        <time>2012-05-08T10:58:40Z</time>
      </trkpt>
      <trkpt lat="43.75213" lon="3.56172">
        <ele>138</ele>
        <time>2012-05-08T10:58:51Z</time>
      </trkpt>
      <trkpt lat="43.75226" lon="3.56193">
        <ele>143</ele>
        <time>2012-05-08T10:59:13Z</time>
      </trkpt>
      <trkpt lat="43.75232" lon="3.56223">
        <ele>151</ele>
        <time>2012-05-08T10:59:46Z</time>
      </trkpt>
      <trkpt lat="43.75241" lon="3.56231">
        <ele>159</ele>
        <time>2012-05-08T11:00:06Z</time>
      </trkpt>
      <trkpt lat="43.75258" lon="3.56243">
        <ele>167</ele>
        <time>2012-05-08T11:00:25Z</time>
      </trkpt>
      <trkpt lat="43.75266" lon="3.56252">
        <ele>167</ele>
        <time>2012-05-08T11:00:36Z</time>
      </trkpt>
      <trkpt lat="43.7527" lon="3.56258">
        <ele>167</ele>
        <time>2012-05-08T11:00:49Z</time>
      </trkpt>
      <trkpt lat="43.75288" lon="3.56271">
        <ele>177</ele>
        <time>2012-05-08T11:01:23Z</time>
      </trkpt>
      <trkpt lat="43.75299" lon="3.56273">
        <ele>183</ele>
        <time>2012-05-08T11:01:48Z</time>
      </trkpt>
      <trkpt lat="43.75308" lon="3.56276">
        <ele>184</ele>
        <time>2012-05-08T11:01:58Z</time>
      </trkpt>
      <trkpt lat="43.75326" lon="3.56272">
        <ele>189</ele>
        <time>2012-05-08T11:02:24Z</time>
      </trkpt>
      <trkpt lat="43.75338" lon="3.56273">
        <ele>189</ele>
        <time>2012-05-08T11:03:04Z</time>
      </trkpt>
      <trkpt lat="43.75342" lon="3.56274">
        <ele>187</ele>
        <time>2012-05-08T11:03:43Z</time>
      </trkpt>
      <trkpt lat="43.75338" lon="3.56284">
        <ele>187</ele>
        <time>2012-05-08T11:04:27Z</time>
      </trkpt>
      <trkpt lat="43.75341" lon="3.56289">
        <ele>189</ele>
        <time>2012-05-08T11:05:23Z</time>
      </trkpt>
      <trkpt lat="43.75342" lon="3.56296">
        <ele>190</ele>
        <time>2012-05-08T11:05:27Z</time>
      </trkpt>
      <trkpt lat="43.75343" lon="3.56303">
        <ele>191</ele>
        <time>2012-05-08T11:05:32Z</time>
      </trkpt>
      <trkpt lat="43.75348" lon="3.56308">
        <ele>191</ele>
        <time>2012-05-08T11:05:38Z</time>
      </trkpt>
      <trkpt lat="43.75352" lon="3.56321">
        <ele>191</ele>
        <time>2012-05-08T11:05:49Z</time>
      </trkpt>
      <trkpt lat="43.75356" lon="3.5634">
        <ele>187</ele>
        <time>2012-05-08T11:06:10Z</time>
      </trkpt>
      <trkpt lat="43.75364" lon="3.56348">
        <ele>186</ele>
        <time>2012-05-08T11:06:16Z</time>
      </trkpt>
      <trkpt lat="43.75373" lon="3.56349">
        <ele>185</ele>
        <time>2012-05-08T11:06:29Z</time>
      </trkpt>
      <trkpt lat="43.75403" lon="3.5636">
        <ele>192</ele>
        <time>2012-05-08T11:06:55Z</time>
      </trkpt>
      <trkpt lat="43.75413" lon="3.56367">
        <ele>192</ele>
        <time>2012-05-08T11:07:05Z</time>
      </trkpt>
      <trkpt lat="43.75419" lon="3.56377">
        <ele>191</ele>
        <time>2012-05-08T11:07:13Z</time>
      </trkpt>
      <trkpt lat="43.75424" lon="3.56388">
        <ele>192</ele>
        <time>2012-05-08T11:07:22Z</time>
      </trkpt>
      <trkpt lat="43.75433" lon="3.56395">
        <ele>193</ele>
        <time>2012-05-08T11:07:29Z</time>
      </trkpt>
      <trkpt lat="43.75448" lon="3.56413">
        <ele>191</ele>
        <time>2012-05-08T11:07:47Z</time>
      </trkpt>
      <trkpt lat="43.75449" lon="3.56426">
        <ele>192</ele>
        <time>2012-05-08T11:08:00Z</time>
      </trkpt>
      <trkpt lat="43.75459" lon="3.56431">
        <ele>194</ele>
        <time>2012-05-08T11:08:11Z</time>
      </trkpt>
      <trkpt lat="43.75494" lon="3.5646">
        <ele>206</ele>
        <time>2012-05-08T11:08:47Z</time>
      </trkpt>
      <trkpt lat="43.75502" lon="3.56469">
        <ele>204</ele>
        <time>2012-05-08T11:08:58Z</time>
      </trkpt>
      <trkpt lat="43.75508" lon="3.56483">
        <ele>204</ele>
        <time>2012-05-08T11:09:11Z</time>
      </trkpt>
      <trkpt lat="43.75517" lon="3.56489">
        <ele>204</ele>
        <time>2012-05-08T11:09:21Z</time>
      </trkpt>
      <trkpt lat="43.75525" lon="3.56498">
        <ele>202</ele>
        <time>2012-05-08T11:09:31Z</time>
      </trkpt>
      <trkpt lat="43.7553" lon="3.56509">
        <ele>201</ele>
        <time>2012-05-08T11:09:42Z</time>
      </trkpt>
      <trkpt lat="43.75537" lon="3.56518">
        <ele>201</ele>
        <time>2012-05-08T11:09:51Z</time>
      </trkpt>
      <trkpt lat="43.75544" lon="3.56527">
        <ele>204</ele>
        <time>2012-05-08T11:10:02Z</time>
      </trkpt>
      <trkpt lat="43.75544" lon="3.56523">
        <ele>208</ele>
        <time>2012-05-08T11:10:30Z</time>
      </trkpt>
      <trkpt lat="43.75536" lon="3.56503">
        <ele>213</ele>
        <time>2012-05-08T11:10:45Z</time>
      </trkpt>
      <trkpt lat="43.75535" lon="3.56478">
        <ele>218</ele>
        <time>2012-05-08T11:11:09Z</time>
      </trkpt>
      <trkpt lat="43.7554" lon="3.56472">
        <ele>223</ele>
        <time>2012-05-08T11:11:24Z</time>
      </trkpt>
      <trkpt lat="43.75543" lon="3.56464">
        <ele>225</ele>
        <time>2012-05-08T11:11:44Z</time>
      </trkpt>
      <trkpt lat="43.75554" lon="3.56471">
        <ele>226</ele>
        <time>2012-05-08T11:12:03Z</time>
      </trkpt>
      <trkpt lat="43.7556" lon="3.5648">
        <ele>226</ele>
        <time>2012-05-08T11:12:14Z</time>
      </trkpt>
      <trkpt lat="43.75562" lon="3.5649">
        <ele>226</ele>
        <time>2012-05-08T11:12:24Z</time>
      </trkpt>
      <trkpt lat="43.75562" lon="3.56494">
        <ele>229</ele>
        <time>2012-05-08T11:12:42Z</time>
      </trkpt>
      <trkpt lat="43.75565" lon="3.5649">
        <ele>229</ele>
        <time>2012-05-08T11:13:07Z</time>
      </trkpt>
      <trkpt lat="43.75567" lon="3.56477">
        <ele>230</ele>
        <time>2012-05-08T11:13:19Z</time>
      </trkpt>
      <trkpt lat="43.75568" lon="3.56454">
        <ele>238</ele>
        <time>2012-05-08T11:13:46Z</time>
      </trkpt>
      <trkpt lat="43.75576" lon="3.5645">
        <ele>240</ele>
        <time>2012-05-08T11:14:14Z</time>
      </trkpt>
      <trkpt lat="43.75573" lon="3.56439">
        <ele>244</ele>
        <time>2012-05-08T11:14:44Z</time>
      </trkpt>
      <trkpt lat="43.75576" lon="3.56429">
        <ele>249</ele>
        <time>2012-05-08T11:15:08Z</time>
      </trkpt>
      <trkpt lat="43.75585" lon="3.56433">
        <ele>253</ele>
        <time>2012-05-08T11:15:21Z</time>
      </trkpt>
      <trkpt lat="43.75598" lon="3.56443">
        <ele>261</ele>
        <time>2012-05-08T11:15:46Z</time>
      </trkpt>
      <trkpt lat="43.75598" lon="3.56436">
        <ele>262</ele>
        <time>2012-05-08T11:15:57Z</time>
      </trkpt>
      <trkpt lat="43.75596" lon="3.56415">
        <ele>262</ele>
        <time>2012-05-08T11:16:30Z</time>
      </trkpt>
      <trkpt lat="43.75592" lon="3.5641">
        <ele>261</ele>
        <time>2012-05-08T11:16:34Z</time>
      </trkpt>
      <trkpt lat="43.75585" lon="3.56402">
        <ele>262</ele>
        <time>2012-05-08T11:16:45Z</time>
      </trkpt>
      <trkpt lat="43.7558" lon="3.56397">
        <ele>261</ele>
        <time>2012-05-08T11:16:51Z</time>
      </trkpt>
      <trkpt lat="43.75566" lon="3.56375">
        <ele>267</ele>
        <time>2012-05-08T11:17:13Z</time>
      </trkpt>
      <trkpt lat="43.75569" lon="3.5637">
        <ele>269</ele>
        <time>2012-05-08T11:17:20Z</time>
      </trkpt>
      <trkpt lat="43.75573" lon="3.56375">
        <ele>270</ele>
        <time>2012-05-08T11:17:25Z</time>
      </trkpt>
      <trkpt lat="43.75576" lon="3.5638">
        <ele>271</ele>
        <time>2012-05-08T11:17:30Z</time>
      </trkpt>
      <trkpt lat="43.75578" lon="3.56374">
        <ele>272</ele>
        <time>2012-05-08T11:17:38Z</time>
      </trkpt>
      <trkpt lat="43.75581" lon="3.5636">
        <ele>274</ele>
        <time>2012-05-08T11:17:48Z</time>
      </trkpt>
      <trkpt lat="43.75586" lon="3.5636">
        <ele>275</ele>
        <time>2012-05-08T11:17:57Z</time>
      </trkpt>
      <trkpt lat="43.75609" lon="3.56385">
        <ele>280</ele>
        <time>2012-05-08T11:18:37Z</time>
      </trkpt>
      <trkpt lat="43.75613" lon="3.56388">
        <ele>280</ele>
        <time>2012-05-08T11:18:42Z</time>
      </trkpt>
      <trkpt lat="43.75616" lon="3.56382">
        <ele>282</ele>
        <time>2012-05-08T11:18:49Z</time>
      </trkpt>
      <trkpt lat="43.75615" lon="3.56375">
        <ele>283</ele>
        <time>2012-05-08T11:18:56Z</time>
      </trkpt>
      <trkpt lat="43.75613" lon="3.5637">
        <ele>283</ele>
        <time>2012-05-08T11:19:04Z</time>
      </trkpt>
      <trkpt lat="43.75614" lon="3.56363">
        <ele>283</ele>
        <time>2012-05-08T11:19:10Z</time>
      </trkpt>
      <trkpt lat="43.75617" lon="3.56357">
        <ele>285</ele>
        <time>2012-05-08T11:19:17Z</time>
      </trkpt>
      <trkpt lat="43.75618" lon="3.56349">
        <ele>286</ele>
        <time>2012-05-08T11:19:23Z</time>
      </trkpt>
      <trkpt lat="43.7562" lon="3.56334">
        <ele>288</ele>
        <time>2012-05-08T11:19:33Z</time>
      </trkpt>
      <trkpt lat="43.75628" lon="3.5632">
        <ele>294</ele>
        <time>2012-05-08T11:20:13Z</time>
      </trkpt>
      <trkpt lat="43.75632" lon="3.56314">
        <ele>295</ele>
        <time>2012-05-08T11:20:19Z</time>
      </trkpt>
      <trkpt lat="43.75639" lon="3.56305">
        <ele>298</ele>
        <time>2012-05-08T11:20:29Z</time>
      </trkpt>
      <trkpt lat="43.75642" lon="3.56297">
        <ele>298</ele>
        <time>2012-05-08T11:20:55Z</time>
      </trkpt>
      <trkpt lat="43.7565" lon="3.56278">
        <ele>299</ele>
        <time>2012-05-08T11:21:16Z</time>
      </trkpt>
      <trkpt lat="43.7565" lon="3.56271">
        <ele>299</ele>
        <time>2012-05-08T11:21:23Z</time>
      </trkpt>
      <trkpt lat="43.75647" lon="3.56264">
        <ele>299</ele>
        <time>2012-05-08T11:21:31Z</time>
      </trkpt>
      <trkpt lat="43.75642" lon="3.56258">
        <ele>299</ele>
        <time>2012-05-08T11:21:37Z</time>
      </trkpt>
      <trkpt lat="43.75633" lon="3.5625">
        <ele>300</ele>
        <time>2012-05-08T11:21:47Z</time>
      </trkpt>
      <trkpt lat="43.7563" lon="3.56243">
        <ele>300</ele>
        <time>2012-05-08T11:21:52Z</time>
      </trkpt>
      <trkpt lat="43.75629" lon="3.56236">
        <ele>301</ele>
        <time>2012-05-08T11:21:56Z</time>
      </trkpt>
      <trkpt lat="43.75629" lon="3.5623">
        <ele>301</ele>
        <time>2012-05-08T11:22:02Z</time>
      </trkpt>
      <trkpt lat="43.75633" lon="3.56226">
        <ele>302</ele>
        <time>2012-05-08T11:22:08Z</time>
      </trkpt>
      <trkpt lat="43.75638" lon="3.56224">
        <ele>302</ele>
        <time>2012-05-08T11:22:14Z</time>
      </trkpt>
      <trkpt lat="43.75643" lon="3.56224">
        <ele>302</ele>
        <time>2012-05-08T11:22:17Z</time>
      </trkpt>
      <trkpt lat="43.75647" lon="3.56221">
        <ele>302</ele>
        <time>2012-05-08T11:22:22Z</time>
      </trkpt>
      <trkpt lat="43.75651" lon="3.5622">
        <ele>301</ele>
        <time>2012-05-08T11:22:28Z</time>
      </trkpt>
      <trkpt lat="43.75656" lon="3.56221">
        <ele>302</ele>
        <time>2012-05-08T11:22:33Z</time>
      </trkpt>
      <trkpt lat="43.75661" lon="3.56221">
        <ele>302</ele>
        <time>2012-05-08T11:22:38Z</time>
      </trkpt>
      <trkpt lat="43.7567" lon="3.56218">
        <ele>306</ele>
        <time>2012-05-08T11:22:51Z</time>
      </trkpt>
      <trkpt lat="43.7567" lon="3.56209">
        <ele>309</ele>
        <time>2012-05-08T11:23:03Z</time>
      </trkpt>
      <trkpt lat="43.75669" lon="3.56204">
        <ele>311</ele>
        <time>2012-05-08T11:23:12Z</time>
      </trkpt>
      <trkpt lat="43.75677" lon="3.56207">
        <ele>307</ele>
        <time>2012-05-08T11:23:38Z</time>
      </trkpt>
      <trkpt lat="43.75683" lon="3.56208">
        <ele>306</ele>
        <time>2012-05-08T11:23:45Z</time>
      </trkpt>
      <trkpt lat="43.75681" lon="3.56199">
        <ele>310</ele>
        <time>2012-05-08T11:24:50Z</time>
      </trkpt>
      <trkpt lat="43.75679" lon="3.56191">
        <ele>312</ele>
        <time>2012-05-08T11:25:25Z</time>
      </trkpt>
      <trkpt lat="43.75671" lon="3.5618">
        <ele>316</ele>
        <time>2012-05-08T11:25:34Z</time>
      </trkpt>
      <trkpt lat="43.75675" lon="3.56182">
        <ele>317</ele>
        <time>2012-05-08T11:29:30Z</time>
      </trkpt>
      <trkpt lat="43.75677" lon="3.56188">
        <ele>317</ele>
        <time>2012-05-08T11:29:38Z</time>
      </trkpt>
      <trkpt lat="43.75671" lon="3.56195">
        <ele>314</ele>
        <time>2012-05-08T12:12:28Z</time>
      </trkpt>
      <trkpt lat="43.75673" lon="3.56201">
        <ele>313</ele>
        <time>2012-05-08T12:12:58Z</time>
      </trkpt>
      <trkpt lat="43.75674" lon="3.56214">
        <ele>312</ele>
        <time>2012-05-08T12:13:46Z</time>
      </trkpt>
      <trkpt lat="43.75666" lon="3.56221">
        <ele>311</ele>
        <time>2012-05-08T12:14:00Z</time>
      </trkpt>
      <trkpt lat="43.75661" lon="3.56221">
        <ele>311</ele>
        <time>2012-05-08T12:14:05Z</time>
      </trkpt>
      <trkpt lat="43.75656" lon="3.56221">
        <ele>310</ele>
        <time>2012-05-08T12:14:10Z</time>
      </trkpt>
      <trkpt lat="43.7565" lon="3.56221">
        <ele>310</ele>
        <time>2012-05-08T12:14:18Z</time>
      </trkpt>
      <trkpt lat="43.75637" lon="3.56231">
        <ele>306</ele>
        <time>2012-05-08T12:14:41Z</time>
      </trkpt>
      <trkpt lat="43.75636" lon="3.56238">
        <ele>305</ele>
        <time>2012-05-08T12:14:46Z</time>
      </trkpt>
      <trkpt lat="43.75637" lon="3.56245">
        <ele>304</ele>
        <time>2012-05-08T12:14:54Z</time>
      </trkpt>
      <trkpt lat="43.75644" lon="3.56254">
        <ele>305</ele>
        <time>2012-05-08T12:15:10Z</time>
      </trkpt>
      <trkpt lat="43.75651" lon="3.56262">
        <ele>305</ele>
        <time>2012-05-08T12:15:23Z</time>
      </trkpt>
      <trkpt lat="43.75655" lon="3.56288">
        <ele>301</ele>
        <time>2012-05-08T12:15:40Z</time>
      </trkpt>
      <trkpt lat="43.75651" lon="3.563">
        <ele>298</ele>
        <time>2012-05-08T12:15:52Z</time>
      </trkpt>
      <trkpt lat="43.75643" lon="3.56319">
        <ele>296</ele>
        <time>2012-05-08T12:16:09Z</time>
      </trkpt>
      <trkpt lat="43.75641" lon="3.56325">
        <ele>296</ele>
        <time>2012-05-08T12:16:14Z</time>
      </trkpt>
      <trkpt lat="43.75636" lon="3.56343">
        <ele>294</ele>
        <time>2012-05-08T12:16:33Z</time>
      </trkpt>
      <trkpt lat="43.75638" lon="3.56357">
        <ele>294</ele>
        <time>2012-05-08T12:16:42Z</time>
      </trkpt>
      <trkpt lat="43.7564" lon="3.56376">
        <ele>297</ele>
        <time>2012-05-08T12:17:00Z</time>
      </trkpt>
      <trkpt lat="43.75646" lon="3.56414">
        <ele>288</ele>
        <time>2012-05-08T12:17:38Z</time>
      </trkpt>
      <trkpt lat="43.75646" lon="3.56421">
        <ele>287</ele>
        <time>2012-05-08T12:17:43Z</time>
      </trkpt>
      <trkpt lat="43.75649" lon="3.56435">
        <ele>287</ele>
        <time>2012-05-08T12:17:53Z</time>
      </trkpt>
      <trkpt lat="43.75649" lon="3.56443">
        <ele>286</ele>
        <time>2012-05-08T12:18:00Z</time>
      </trkpt>
      <trkpt lat="43.75649" lon="3.56451">
        <ele>286</ele>
        <time>2012-05-08T12:18:05Z</time>
      </trkpt>
      <trkpt lat="43.75651" lon="3.56457">
        <ele>288</ele>
        <time>2012-05-08T12:18:11Z</time>
      </trkpt>
      <trkpt lat="43.75653" lon="3.56464">
        <ele>289</ele>
        <time>2012-05-08T12:18:20Z</time>
      </trkpt>
      <trkpt lat="43.75656" lon="3.56471">
        <ele>290</ele>
        <time>2012-05-08T12:18:29Z</time>
      </trkpt>
      <trkpt lat="43.75662" lon="3.56481">
        <ele>290</ele>
        <time>2012-05-08T12:18:44Z</time>
      </trkpt>
      <trkpt lat="43.75674" lon="3.565">
        <ele>283</ele>
        <time>2012-05-08T12:19:08Z</time>
      </trkpt>
      <trkpt lat="43.75679" lon="3.56503">
        <ele>284</ele>
        <time>2012-05-08T12:19:16Z</time>
      </trkpt>
      <trkpt lat="43.75702" lon="3.5651">
        <ele>274</ele>
        <time>2012-05-08T12:19:47Z</time>
      </trkpt>
      <trkpt lat="43.75715" lon="3.56528">
        <ele>270</ele>
        <time>2012-05-08T12:20:07Z</time>
      </trkpt>
      <trkpt lat="43.75717" lon="3.56534">
        <ele>269</ele>
        <time>2012-05-08T12:20:13Z</time>
      </trkpt>
      <trkpt lat="43.75729" lon="3.56553">
        <ele>272</ele>
        <time>2012-05-08T12:20:34Z</time>
      </trkpt>
      <trkpt lat="43.75732" lon="3.56565">
        <ele>267</ele>
        <time>2012-05-08T12:20:49Z</time>
      </trkpt>
      <trkpt lat="43.75738" lon="3.56571">
        <ele>261</ele>
        <time>2012-05-08T12:21:00Z</time>
      </trkpt>
      <trkpt lat="43.75746" lon="3.56578">
        <ele>260</ele>
        <time>2012-05-08T12:21:12Z</time>
      </trkpt>
      <trkpt lat="43.75757" lon="3.56591">
        <ele>260</ele>
        <time>2012-05-08T12:21:27Z</time>
      </trkpt>
      <trkpt lat="43.75762" lon="3.56596">
        <ele>261</ele>
        <time>2012-05-08T12:21:40Z</time>
      </trkpt>
      <trkpt lat="43.75765" lon="3.56602">
        <ele>261</ele>
        <time>2012-05-08T12:21:46Z</time>
      </trkpt>
      <trkpt lat="43.75791" lon="3.56624">
        <ele>255</ele>
        <time>2012-05-08T12:22:17Z</time>
      </trkpt>
      <trkpt lat="43.75796" lon="3.56628">
        <ele>253</ele>
        <time>2012-05-08T12:22:24Z</time>
      </trkpt>
      <trkpt lat="43.758" lon="3.56632">
        <ele>254</ele>
        <time>2012-05-08T12:22:29Z</time>
      </trkpt>
      <trkpt lat="43.75809" lon="3.56643">
        <ele>256</ele>
        <time>2012-05-08T12:22:42Z</time>
      </trkpt>
      <trkpt lat="43.75833" lon="3.56667">
        <ele>247</ele>
        <time>2012-05-08T12:23:12Z</time>
      </trkpt>
      <trkpt lat="43.75842" lon="3.56666">
        <ele>245</ele>
        <time>2012-05-08T12:23:22Z</time>
      </trkpt>
      <trkpt lat="43.7586" lon="3.56661">
        <ele>260</ele>
        <time>2012-05-08T12:23:39Z</time>
      </trkpt>
      <trkpt lat="43.75869" lon="3.56665">
        <ele>261</ele>
        <time>2012-05-08T12:23:47Z</time>
      </trkpt>
      <trkpt lat="43.75876" lon="3.56674">
        <ele>258</ele>
        <time>2012-05-08T12:23:56Z</time>
      </trkpt>
      <trkpt lat="43.7589" lon="3.56711">
        <ele>249</ele>
        <time>2012-05-08T12:24:28Z</time>
      </trkpt>
      <trkpt lat="43.75901" lon="3.56733">
        <ele>243</ele>
        <time>2012-05-08T12:24:54Z</time>
      </trkpt>
      <trkpt lat="43.7591" lon="3.56735">
        <ele>240</ele>
        <time>2012-05-08T12:25:08Z</time>
      </trkpt>
      <trkpt lat="43.75919" lon="3.56734">
        <ele>244</ele>
        <time>2012-05-08T12:25:38Z</time>
      </trkpt>
      <trkpt lat="43.75916" lon="3.56741">
        <ele>254</ele>
        <time>2012-05-08T12:26:59Z</time>
      </trkpt>
      <trkpt lat="43.75927" lon="3.56741">
        <ele>256</ele>
        <time>2012-05-08T12:27:19Z</time>
      </trkpt>
      <trkpt lat="43.7594" lon="3.56741">
        <ele>258</ele>
        <time>2012-05-08T12:27:53Z</time>
      </trkpt>
      <trkpt lat="43.75945" lon="3.56747">
        <ele>261</ele>
        <time>2012-05-08T12:28:03Z</time>
      </trkpt>
      <trkpt lat="43.75943" lon="3.56761">
        <ele>261</ele>
        <time>2012-05-08T12:28:11Z</time>
      </trkpt>
      <trkpt lat="43.7594" lon="3.56768">
        <ele>258</ele>
        <time>2012-05-08T12:28:23Z</time>
      </trkpt>
      <trkpt lat="43.75928" lon="3.56773">
        <ele>261</ele>
        <time>2012-05-08T12:28:54Z</time>
      </trkpt>
      <trkpt lat="43.75924" lon="3.56777">
        <ele>261</ele>
        <time>2012-05-08T12:29:01Z</time>
      </trkpt>
      <trkpt lat="43.75915" lon="3.56783">
        <ele>262</ele>
        <time>2012-05-08T12:29:13Z</time>
      </trkpt>
      <trkpt lat="43.75888" lon="3.5679">
        <ele>273</ele>
        <time>2012-05-08T12:29:52Z</time>
      </trkpt>
      <trkpt lat="43.75879" lon="3.56787">
        <ele>273</ele>
        <time>2012-05-08T12:30:03Z</time>
      </trkpt>
      <trkpt lat="43.75846" lon="3.5678">
        <ele>280</ele>
        <time>2012-05-08T12:30:39Z</time>
      </trkpt>
      <trkpt lat="43.75836" lon="3.56778">
        <ele>281</ele>
        <time>2012-05-08T12:31:02Z</time>
      </trkpt>
      <trkpt lat="43.75828" lon="3.56785">
        <ele>284</ele>
        <time>2012-05-08T12:31:20Z</time>
      </trkpt>
      <trkpt lat="43.75821" lon="3.56794">
        <ele>283</ele>
        <time>2012-05-08T12:31:34Z</time>
      </trkpt>
      <trkpt lat="43.75811" lon="3.56799">
        <ele>282</ele>
        <time>2012-05-08T12:31:45Z</time>
      </trkpt>
      <trkpt lat="43.75802" lon="3.56801">
        <ele>282</ele>
        <time>2012-05-08T12:31:56Z</time>
      </trkpt>
      <trkpt lat="43.75797" lon="3.56803">
        <ele>290</ele>
        <time>2012-05-08T12:32:17Z</time>
      </trkpt>
      <trkpt lat="43.7579" lon="3.56803">
        <ele>301</ele>
        <time>2012-05-08T12:34:04Z</time>
      </trkpt>
      <trkpt lat="43.75781" lon="3.56823">
        <ele>288</ele>
        <time>2012-05-08T12:34:21Z</time>
      </trkpt>
      <trkpt lat="43.75779" lon="3.56836">
        <ele>285</ele>
        <time>2012-05-08T12:34:33Z</time>
      </trkpt>
      <trkpt lat="43.75776" lon="3.56849">
        <ele>286</ele>
        <time>2012-05-08T12:34:45Z</time>
      </trkpt>
      <trkpt lat="43.75773" lon="3.56862">
        <ele>291</ele>
        <time>2012-05-08T12:35:03Z</time>
      </trkpt>
      <trkpt lat="43.75778" lon="3.56859">
        <ele>295</ele>
        <time>2012-05-08T12:35:22Z</time>
      </trkpt>
      <trkpt lat="43.75781" lon="3.56869">
        <ele>298</ele>
        <time>2012-05-08T12:35:37Z</time>
      </trkpt>
      <trkpt lat="43.7578" lon="3.56876">
        <ele>300</ele>
        <time>2012-05-08T12:35:44Z</time>
      </trkpt>
      <trkpt lat="43.75778" lon="3.5688">
        <ele>299</ele>
        <time>2012-05-08T12:36:01Z</time>
      </trkpt>
      <trkpt lat="43.75781" lon="3.56889">
        <ele>297</ele>
        <time>2012-05-08T12:36:40Z</time>
      </trkpt>
      <trkpt lat="43.75785" lon="3.56901">
        <ele>299</ele>
        <time>2012-05-08T12:36:51Z</time>
      </trkpt>
      <trkpt lat="43.75787" lon="3.56908">
        <ele>298</ele>
        <time>2012-05-08T12:36:56Z</time>
      </trkpt>
      <trkpt lat="43.75789" lon="3.56915">
        <ele>299</ele>
        <time>2012-05-08T12:37:01Z</time>
      </trkpt>
      <trkpt lat="43.75789" lon="3.56921">
        <ele>299</ele>
        <time>2012-05-08T12:37:07Z</time>
      </trkpt>
      <trkpt lat="43.75787" lon="3.56928">
        <ele>301</ele>
        <time>2012-05-08T12:37:11Z</time>
      </trkpt>
      <trkpt lat="43.7579" lon="3.56949">
        <ele>303</ele>
        <time>2012-05-08T12:37:26Z</time>
      </trkpt>
      <trkpt lat="43.75791" lon="3.56963">
        <ele>303</ele>
        <time>2012-05-08T12:37:36Z</time>
      </trkpt>
      <trkpt lat="43.75791" lon="3.56971">
        <ele>304</ele>
        <time>2012-05-08T12:37:41Z</time>
      </trkpt>
      <trkpt lat="43.75792" lon="3.56977">
        <ele>303</ele>
        <time>2012-05-08T12:37:45Z</time>
      </trkpt>
      <trkpt lat="43.75793" lon="3.56984">
        <ele>303</ele>
        <time>2012-05-08T12:37:49Z</time>
      </trkpt>
      <trkpt lat="43.75802" lon="3.57002">
        <ele>299</ele>
        <time>2012-05-08T12:38:06Z</time>
      </trkpt>
      <trkpt lat="43.75805" lon="3.57007">
        <ele>299</ele>
        <time>2012-05-08T12:38:12Z</time>
      </trkpt>
      <trkpt lat="43.75807" lon="3.57013">
        <ele>300</ele>
        <time>2012-05-08T12:38:17Z</time>
      </trkpt>
      <trkpt lat="43.75817" lon="3.57023">
        <ele>303</ele>
        <time>2012-05-08T12:38:33Z</time>
      </trkpt>
      <trkpt lat="43.7582" lon="3.57028">
        <ele>303</ele>
        <time>2012-05-08T12:38:38Z</time>
      </trkpt>
      <trkpt lat="43.75827" lon="3.57048">
        <ele>301</ele>
        <time>2012-05-08T12:38:55Z</time>
      </trkpt>
      <trkpt lat="43.75827" lon="3.57055">
        <ele>302</ele>
        <time>2012-05-08T12:39:00Z</time>
      </trkpt>
      <trkpt lat="43.75829" lon="3.57061">
        <ele>304</ele>
        <time>2012-05-08T12:39:06Z</time>
      </trkpt>
      <trkpt lat="43.75827" lon="3.57064">
        <ele>305</ele>
        <time>2012-05-08T12:39:13Z</time>
      </trkpt>
      <trkpt lat="43.75832" lon="3.57068">
        <ele>302</ele>
        <time>2012-05-08T12:40:03Z</time>
      </trkpt>
      <trkpt lat="43.75835" lon="3.57073">
        <ele>301</ele>
        <time>2012-05-08T12:40:06Z</time>
      </trkpt>
      <trkpt lat="43.75843" lon="3.57082">
        <ele>301</ele>
        <time>2012-05-08T12:40:16Z</time>
      </trkpt>
      <trkpt lat="43.75849" lon="3.57087">
        <ele>297</ele>
        <time>2012-05-08T12:40:41Z</time>
      </trkpt>
      <trkpt lat="43.75852" lon="3.57089">
        <ele>297</ele>
        <time>2012-05-08T12:40:48Z</time>
      </trkpt>
      <trkpt lat="43.75854" lon="3.57087">
        <ele>300</ele>
        <time>2012-05-08T12:41:06Z</time>
      </trkpt>
      <trkpt lat="43.75857" lon="3.57091">
        <ele>304</ele>
        <time>2012-05-08T12:42:43Z</time>
      </trkpt>
      <trkpt lat="43.75866" lon="3.57089">
        <ele>304</ele>
        <time>2012-05-08T12:43:23Z</time>
      </trkpt>
      <trkpt lat="43.75862" lon="3.57098">
        <ele>299</ele>
        <time>2012-05-08T12:48:14Z</time>
      </trkpt>
      <trkpt lat="43.75861" lon="3.57101">
        <ele>302</ele>
        <time>2012-05-08T12:48:24Z</time>
      </trkpt>
      <trkpt lat="43.75862" lon="3.57101">
        <ele>311</ele>
        <time>2012-05-08T12:51:16Z</time>
      </trkpt>
      <trkpt lat="43.75861" lon="3.57093">
        <ele>311</ele>
        <time>2012-05-08T12:51:26Z</time>
      </trkpt>
      <trkpt lat="43.75859" lon="3.57087">
        <ele>311</ele>
        <time>2012-05-08T12:51:36Z</time>
      </trkpt>
      <trkpt lat="43.75865" lon="3.5708">
        <ele>311</ele>
        <time>2012-05-08T12:52:23Z</time>
      </trkpt>
      <trkpt lat="43.75864" lon="3.57078">
        <ele>310</ele>
        <time>2012-05-08T12:53:14Z</time>
      </trkpt>
      <trkpt lat="43.75862" lon="3.57097">
        <ele>308</ele>
        <time>2012-05-08T12:55:08Z</time>
      </trkpt>
      <trkpt lat="43.7586" lon="3.57093">
        <ele>312</ele>
        <time>2012-05-08T12:57:36Z</time>
      </trkpt>
      <trkpt lat="43.75855" lon="3.57092">
        <ele>312</ele>
        <time>2012-05-08T12:57:42Z</time>
      </trkpt>
      <trkpt lat="43.75854" lon="3.57097">
        <ele>307</ele>
        <time>2012-05-08T12:58:20Z</time>
      </trkpt>
      <trkpt lat="43.75848" lon="3.57124">
        <ele>301</ele>
        <time>2012-05-08T12:58:56Z</time>
      </trkpt>
      <trkpt lat="43.7585" lon="3.57139">
        <ele>299</ele>
        <time>2012-05-08T12:59:35Z</time>
      </trkpt>
      <trkpt lat="43.75852" lon="3.57146">
        <ele>298</ele>
        <time>2012-05-08T12:59:43Z</time>
      </trkpt>
      <trkpt lat="43.75855" lon="3.57159">
        <ele>299</ele>
        <time>2012-05-08T12:59:54Z</time>
      </trkpt>
      <trkpt lat="43.75851" lon="3.57177">
        <ele>299</ele>
        <time>2012-05-08T13:00:14Z</time>
      </trkpt>
      <trkpt lat="43.7585" lon="3.57174">
        <ele>296</ele>
        <time>2012-05-08T13:00:53Z</time>
      </trkpt>
      <trkpt lat="43.75845" lon="3.57171">
        <ele>296</ele>
        <time>2012-05-08T13:00:58Z</time>
      </trkpt>
      <trkpt lat="43.75841" lon="3.57172">
        <ele>296</ele>
        <time>2012-05-08T13:01:03Z</time>
      </trkpt>
      <trkpt lat="43.75836" lon="3.57175">
        <ele>295</ele>
        <time>2012-05-08T13:01:10Z</time>
      </trkpt>
      <trkpt lat="43.75827" lon="3.5718">
        <ele>297</ele>
        <time>2012-05-08T13:01:19Z</time>
      </trkpt>
      <trkpt lat="43.75822" lon="3.5718">
        <ele>297</ele>
        <time>2012-05-08T13:01:24Z</time>
      </trkpt>
      <trkpt lat="43.75818" lon="3.57182">
        <ele>297</ele>
        <time>2012-05-08T13:01:30Z</time>
      </trkpt>
      <trkpt lat="43.75813" lon="3.57186">
        <ele>296</ele>
        <time>2012-05-08T13:01:37Z</time>
      </trkpt>
      <trkpt lat="43.75808" lon="3.57185">
        <ele>295</ele>
        <time>2012-05-08T13:01:42Z</time>
      </trkpt>
      <trkpt lat="43.75803" lon="3.57183">
        <ele>296</ele>
        <time>2012-05-08T13:01:48Z</time>
      </trkpt>
      <trkpt lat="43.75798" lon="3.57184">
        <ele>295</ele>
        <time>2012-05-08T13:01:54Z</time>
      </trkpt>
      <trkpt lat="43.75794" lon="3.57187">
        <ele>295</ele>
        <time>2012-05-08T13:01:59Z</time>
      </trkpt>
      <trkpt lat="43.75792" lon="3.57189">
        <ele>294</ele>
        <time>2012-05-08T13:02:16Z</time>
      </trkpt>
      <trkpt lat="43.75788" lon="3.57192">
        <ele>295</ele>
        <time>2012-05-08T13:02:36Z</time>
      </trkpt>
      <trkpt lat="43.75785" lon="3.57187">
        <ele>297</ele>
        <time>2012-05-08T13:02:43Z</time>
      </trkpt>
      <trkpt lat="43.75783" lon="3.57183">
        <ele>298</ele>
        <time>2012-05-08T13:02:51Z</time>
      </trkpt>
      <trkpt lat="43.75781" lon="3.57177">
        <ele>298</ele>
        <time>2012-05-08T13:02:59Z</time>
      </trkpt>
      <trkpt lat="43.75778" lon="3.57171">
        <ele>300</ele>
        <time>2012-05-08T13:03:13Z</time>
      </trkpt>
      <trkpt lat="43.75777" lon="3.57164">
        <ele>300</ele>
        <time>2012-05-08T13:03:19Z</time>
      </trkpt>
      <trkpt lat="43.75772" lon="3.57163">
        <ele>300</ele>
        <time>2012-05-08T13:03:25Z</time>
      </trkpt>
      <trkpt lat="43.75759" lon="3.57175">
        <ele>297</ele>
        <time>2012-05-08T13:03:41Z</time>
      </trkpt>
      <trkpt lat="43.75752" lon="3.57184">
        <ele>295</ele>
        <time>2012-05-08T13:03:53Z</time>
      </trkpt>
      <trkpt lat="43.7575" lon="3.57187">
        <ele>297</ele>
        <time>2012-05-08T13:04:04Z</time>
      </trkpt>
      <trkpt lat="43.75747" lon="3.57192">
        <ele>297</ele>
        <time>2012-05-08T13:04:10Z</time>
      </trkpt>
      <trkpt lat="43.75728" lon="3.572">
        <ele>292</ele>
        <time>2012-05-08T13:04:40Z</time>
      </trkpt>
      <trkpt lat="43.75708" lon="3.5721">
        <ele>287</ele>
        <time>2012-05-08T13:04:59Z</time>
      </trkpt>
      <trkpt lat="43.75698" lon="3.57213">
        <ele>288</ele>
        <time>2012-05-08T13:05:11Z</time>
      </trkpt>
      <trkpt lat="43.75689" lon="3.57217">
        <ele>286</ele>
        <time>2012-05-08T13:05:23Z</time>
      </trkpt>
      <trkpt lat="43.75684" lon="3.5722">
        <ele>287</ele>
        <time>2012-05-08T13:05:29Z</time>
      </trkpt>
      <trkpt lat="43.7568" lon="3.57224">
        <ele>287</ele>
        <time>2012-05-08T13:05:35Z</time>
      </trkpt>
      <trkpt lat="43.75675" lon="3.57227">
        <ele>288</ele>
        <time>2012-05-08T13:05:41Z</time>
      </trkpt>
      <trkpt lat="43.75668" lon="3.57237">
        <ele>284</ele>
        <time>2012-05-08T13:05:53Z</time>
      </trkpt>
      <trkpt lat="43.75663" lon="3.5724">
        <ele>283</ele>
        <time>2012-05-08T13:05:59Z</time>
      </trkpt>
      <trkpt lat="43.75658" lon="3.57247">
        <ele>283</ele>
        <time>2012-05-08T13:06:09Z</time>
      </trkpt>
      <trkpt lat="43.75642" lon="3.57253">
        <ele>286</ele>
        <time>2012-05-08T13:06:28Z</time>
      </trkpt>
      <trkpt lat="43.75638" lon="3.57257">
        <ele>286</ele>
        <time>2012-05-08T13:06:31Z</time>
      </trkpt>
      <trkpt lat="43.75633" lon="3.57269">
        <ele>284</ele>
        <time>2012-05-08T13:06:41Z</time>
      </trkpt>
      <trkpt lat="43.7563" lon="3.57275">
        <ele>283</ele>
        <time>2012-05-08T13:06:47Z</time>
      </trkpt>
      <trkpt lat="43.75627" lon="3.57279">
        <ele>283</ele>
        <time>2012-05-08T13:06:51Z</time>
      </trkpt>
      <trkpt lat="43.75623" lon="3.57283">
        <ele>283</ele>
        <time>2012-05-08T13:06:56Z</time>
      </trkpt>
      <trkpt lat="43.75618" lon="3.57285">
        <ele>284</ele>
        <time>2012-05-08T13:07:00Z</time>
      </trkpt>
      <trkpt lat="43.75603" lon="3.57284">
        <ele>284</ele>
        <time>2012-05-08T13:07:16Z</time>
      </trkpt>
      <trkpt lat="43.75593" lon="3.57283">
        <ele>286</ele>
        <time>2012-05-08T13:07:25Z</time>
      </trkpt>
      <trkpt lat="43.75587" lon="3.57282">
        <ele>286</ele>
        <time>2012-05-08T13:07:29Z</time>
      </trkpt>
      <trkpt lat="43.75583" lon="3.57283">
        <ele>286</ele>
        <time>2012-05-08T13:07:35Z</time>
      </trkpt>
      <trkpt lat="43.75578" lon="3.57284">
        <ele>285</ele>
        <time>2012-05-08T13:07:40Z</time>
      </trkpt>
      <trkpt lat="43.75572" lon="3.57282">
        <ele>285</ele>
        <time>2012-05-08T13:07:45Z</time>
      </trkpt>
      <trkpt lat="43.7556" lon="3.57285">
        <ele>283</ele>
        <time>2012-05-08T13:08:02Z</time>
      </trkpt>
      <trkpt lat="43.75555" lon="3.57288">
        <ele>282</ele>
        <time>2012-05-08T13:08:07Z</time>
      </trkpt>
      <trkpt lat="43.75535" lon="3.57295">
        <ele>283</ele>
        <time>2012-05-08T13:08:37Z</time>
      </trkpt>
      <trkpt lat="43.7551" lon="3.57305">
        <ele>275</ele>
        <time>2012-05-08T13:09:02Z</time>
      </trkpt>
      <trkpt lat="43.75506" lon="3.57308">
        <ele>276</ele>
        <time>2012-05-08T13:09:06Z</time>
      </trkpt>
      <trkpt lat="43.75501" lon="3.57313">
        <ele>277</ele>
        <time>2012-05-08T13:09:12Z</time>
      </trkpt>
      <trkpt lat="43.75497" lon="3.57316">
        <ele>278</ele>
        <time>2012-05-08T13:09:18Z</time>
      </trkpt>
      <trkpt lat="43.75492" lon="3.5732">
        <ele>278</ele>
        <time>2012-05-08T13:09:22Z</time>
      </trkpt>
      <trkpt lat="43.75482" lon="3.5732">
        <ele>279</ele>
        <time>2012-05-08T13:09:31Z</time>
      </trkpt>
      <trkpt lat="43.75476" lon="3.57319">
        <ele>278</ele>
        <time>2012-05-08T13:09:35Z</time>
      </trkpt>
      <trkpt lat="43.75472" lon="3.57319">
        <ele>279</ele>
        <time>2012-05-08T13:09:40Z</time>
      </trkpt>
      <trkpt lat="43.75462" lon="3.57316">
        <ele>277</ele>
        <time>2012-05-08T13:09:50Z</time>
      </trkpt>
      <trkpt lat="43.75457" lon="3.57312">
        <ele>277</ele>
        <time>2012-05-08T13:09:54Z</time>
      </trkpt>
      <trkpt lat="43.75453" lon="3.5731">
        <ele>278</ele>
        <time>2012-05-08T13:09:58Z</time>
      </trkpt>
      <trkpt lat="43.75443" lon="3.57311">
        <ele>280</ele>
        <time>2012-05-08T13:10:11Z</time>
      </trkpt>
      <trkpt lat="43.75439" lon="3.57317">
        <ele>281</ele>
        <time>2012-05-08T13:10:17Z</time>
      </trkpt>
      <trkpt lat="43.75435" lon="3.57321">
        <ele>280</ele>
        <time>2012-05-08T13:10:22Z</time>
      </trkpt>
      <trkpt lat="43.7543" lon="3.57325">
        <ele>280</ele>
        <time>2012-05-08T13:10:28Z</time>
      </trkpt>
      <trkpt lat="43.75426" lon="3.57327">
        <ele>280</ele>
        <time>2012-05-08T13:10:33Z</time>
      </trkpt>
      <trkpt lat="43.75421" lon="3.57327">
        <ele>280</ele>
        <time>2012-05-08T13:10:40Z</time>
      </trkpt>
      <trkpt lat="43.75411" lon="3.57323">
        <ele>277</ele>
        <time>2012-05-08T13:10:53Z</time>
      </trkpt>
      <trkpt lat="43.75396" lon="3.57315">
        <ele>280</ele>
        <time>2012-05-08T13:11:10Z</time>
      </trkpt>
      <trkpt lat="43.75388" lon="3.57307">
        <ele>279</ele>
        <time>2012-05-08T13:11:18Z</time>
      </trkpt>
      <trkpt lat="43.75379" lon="3.57302">
        <ele>276</ele>
        <time>2012-05-08T13:11:28Z</time>
      </trkpt>
      <trkpt lat="43.75373" lon="3.573">
        <ele>276</ele>
        <time>2012-05-08T13:11:35Z</time>
      </trkpt>
      <trkpt lat="43.75368" lon="3.57299">
        <ele>277</ele>
        <time>2012-05-08T13:11:42Z</time>
      </trkpt>
      <trkpt lat="43.75358" lon="3.573">
        <ele>275</ele>
        <time>2012-05-08T13:11:52Z</time>
      </trkpt>
      <trkpt lat="43.75354" lon="3.573">
        <ele>275</ele>
        <time>2012-05-08T13:11:57Z</time>
      </trkpt>
      <trkpt lat="43.75348" lon="3.573">
        <ele>275</ele>
        <time>2012-05-08T13:12:04Z</time>
      </trkpt>
      <trkpt lat="43.75333" lon="3.57302">
        <ele>272</ele>
        <time>2012-05-08T13:12:20Z</time>
      </trkpt>
      <trkpt lat="43.7533" lon="3.57303">
        <ele>272</ele>
        <time>2012-05-08T13:12:27Z</time>
      </trkpt>
      <trkpt lat="43.75321" lon="3.57301">
        <ele>268</ele>
        <time>2012-05-08T13:12:36Z</time>
      </trkpt>
      <trkpt lat="43.75316" lon="3.57301">
        <ele>268</ele>
        <time>2012-05-08T13:12:39Z</time>
      </trkpt>
      <trkpt lat="43.75307" lon="3.57303">
        <ele>268</ele>
        <time>2012-05-08T13:12:49Z</time>
      </trkpt>
      <trkpt lat="43.75298" lon="3.57299">
        <ele>270</ele>
        <time>2012-05-08T13:12:59Z</time>
      </trkpt>
      <trkpt lat="43.7529" lon="3.5729">
        <ele>269</ele>
        <time>2012-05-08T13:13:11Z</time>
      </trkpt>
      <trkpt lat="43.75286" lon="3.57288">
        <ele>270</ele>
        <time>2012-05-08T13:13:20Z</time>
      </trkpt>
      <trkpt lat="43.75282" lon="3.57282">
        <ele>270</ele>
        <time>2012-05-08T13:13:29Z</time>
      </trkpt>
      <trkpt lat="43.75279" lon="3.57281">
        <ele>270</ele>
        <time>2012-05-08T13:13:36Z</time>
      </trkpt>
      <trkpt lat="43.75268" lon="3.57279">
        <ele>267</ele>
        <time>2012-05-08T13:13:54Z</time>
      </trkpt>
      <trkpt lat="43.75255" lon="3.57272">
        <ele>269</ele>
        <time>2012-05-08T13:14:18Z</time>
      </trkpt>
      <trkpt lat="43.75248" lon="3.57263">
        <ele>271</ele>
        <time>2012-05-08T13:14:30Z</time>
      </trkpt>
      <trkpt lat="43.75228" lon="3.57245">
        <ele>262</ele>
        <time>2012-05-08T13:15:08Z</time>
      </trkpt>
      <trkpt lat="43.75225" lon="3.5724">
        <ele>261</ele>
        <time>2012-05-08T13:15:14Z</time>
      </trkpt>
      <trkpt lat="43.75223" lon="3.57231">
        <ele>257</ele>
        <time>2012-05-08T13:15:22Z</time>
      </trkpt>
      <trkpt lat="43.75219" lon="3.57228">
        <ele>255</ele>
        <time>2012-05-08T13:15:30Z</time>
      </trkpt>
      <trkpt lat="43.75207" lon="3.57214">
        <ele>250</ele>
        <time>2012-05-08T13:15:49Z</time>
      </trkpt>
      <trkpt lat="43.752" lon="3.57206">
        <ele>250</ele>
        <time>2012-05-08T13:16:00Z</time>
      </trkpt>
      <trkpt lat="43.75191" lon="3.57202">
        <ele>248</ele>
        <time>2012-05-08T13:16:12Z</time>
      </trkpt>
      <trkpt lat="43.75182" lon="3.57197">
        <ele>248</ele>
        <time>2012-05-08T13:16:25Z</time>
      </trkpt>
      <trkpt lat="43.75176" lon="3.57188">
        <ele>248</ele>
        <time>2012-05-08T13:16:36Z</time>
      </trkpt>
      <trkpt lat="43.7517" lon="3.57182">
        <ele>250</ele>
        <time>2012-05-08T13:16:52Z</time>
      </trkpt>
      <trkpt lat="43.75161" lon="3.57174">
        <ele>247</ele>
        <time>2012-05-08T13:17:18Z</time>
      </trkpt>
      <trkpt lat="43.75142" lon="3.57165">
        <ele>244</ele>
        <time>2012-05-08T13:17:50Z</time>
      </trkpt>
      <trkpt lat="43.75134" lon="3.57159">
        <ele>241</ele>
        <time>2012-05-08T13:18:03Z</time>
      </trkpt>
      <trkpt lat="43.75131" lon="3.57146">
        <ele>236</ele>
        <time>2012-05-08T13:18:15Z</time>
      </trkpt>
      <trkpt lat="43.75127" lon="3.57134">
        <ele>235</ele>
        <time>2012-05-08T13:18:25Z</time>
      </trkpt>
      <trkpt lat="43.75108" lon="3.57101">
        <ele>220</ele>
        <time>2012-05-08T13:19:21Z</time>
      </trkpt>
      <trkpt lat="43.75095" lon="3.57089">
        <ele>218</ele>
        <time>2012-05-08T13:19:44Z</time>
      </trkpt>
      <trkpt lat="43.75087" lon="3.57079">
        <ele>220</ele>
        <time>2012-05-08T13:19:55Z</time>
      </trkpt>
      <trkpt lat="43.75084" lon="3.57074">
        <ele>220</ele>
        <time>2012-05-08T13:20:01Z</time>
      </trkpt>
      <trkpt lat="43.75082" lon="3.57068">
        <ele>220</ele>
        <time>2012-05-08T13:20:05Z</time>
      </trkpt>
      <trkpt lat="43.75078" lon="3.57063">
        <ele>220</ele>
        <time>2012-05-08T13:20:10Z</time>
      </trkpt>
      <trkpt lat="43.75057" lon="3.5703">
        <ele>215</ele>
        <time>2012-05-08T13:20:45Z</time>
      </trkpt>
      <trkpt lat="43.75054" lon="3.57025">
        <ele>215</ele>
        <time>2012-05-08T13:20:52Z</time>
      </trkpt>
      <trkpt lat="43.75049" lon="3.57021">
        <ele>215</ele>
        <time>2012-05-08T13:20:58Z</time>
      </trkpt>
      <trkpt lat="43.75038" lon="3.57019">
        <ele>211</ele>
        <time>2012-05-08T13:21:17Z</time>
      </trkpt>
      <trkpt lat="43.75029" lon="3.57015">
        <ele>210</ele>
        <time>2012-05-08T13:21:26Z</time>
      </trkpt>
      <trkpt lat="43.75024" lon="3.57018">
        <ele>210</ele>
        <time>2012-05-08T13:21:32Z</time>
      </trkpt>
      <trkpt lat="43.75019" lon="3.57017">
        <ele>211</ele>
        <time>2012-05-08T13:21:38Z</time>
      </trkpt>
      <trkpt lat="43.75013" lon="3.57013">
        <ele>211</ele>
        <time>2012-05-08T13:21:47Z</time>
      </trkpt>
      <trkpt lat="43.75003" lon="3.57018">
        <ele>206</ele>
        <time>2012-05-08T13:21:59Z</time>
      </trkpt>
      <trkpt lat="43.74998" lon="3.57019">
        <ele>206</ele>
        <time>2012-05-08T13:22:03Z</time>
      </trkpt>
      <trkpt lat="43.74987" lon="3.57019">
        <ele>207</ele>
        <time>2012-05-08T13:22:22Z</time>
      </trkpt>
      <trkpt lat="43.74961" lon="3.57016">
        <ele>198</ele>
        <time>2012-05-08T13:22:55Z</time>
      </trkpt>
      <trkpt lat="43.74957" lon="3.57012">
        <ele>197</ele>
        <time>2012-05-08T13:23:23Z</time>
      </trkpt>
      <trkpt lat="43.74951" lon="3.5701">
        <ele>199</ele>
        <time>2012-05-08T13:23:36Z</time>
      </trkpt>
      <trkpt lat="43.74949" lon="3.57009">
        <ele>204</ele>
        <time>2012-05-08T13:25:01Z</time>
      </trkpt>
      <trkpt lat="43.74942" lon="3.57013">
        <ele>205</ele>
        <time>2012-05-08T13:25:26Z</time>
      </trkpt>
      <trkpt lat="43.74937" lon="3.57012">
        <ele>205</ele>
        <time>2012-05-08T13:25:30Z</time>
      </trkpt>
      <trkpt lat="43.74926" lon="3.57011">
        <ele>199</ele>
        <time>2012-05-08T13:25:41Z</time>
      </trkpt>
      <trkpt lat="43.74921" lon="3.57011">
        <ele>199</ele>
        <time>2012-05-08T13:25:48Z</time>
      </trkpt>
      <trkpt lat="43.74911" lon="3.57014">
        <ele>197</ele>
        <time>2012-05-08T13:25:56Z</time>
      </trkpt>
      <trkpt lat="43.74905" lon="3.57015">
        <ele>198</ele>
        <time>2012-05-08T13:26:02Z</time>
      </trkpt>
      <trkpt lat="43.74901" lon="3.57013">
        <ele>198</ele>
        <time>2012-05-08T13:26:07Z</time>
      </trkpt>
      <trkpt lat="43.74894" lon="3.57009">
        <ele>197</ele>
        <time>2012-05-08T13:26:14Z</time>
      </trkpt>
      <trkpt lat="43.74875" lon="3.56997">
        <ele>196</ele>
        <time>2012-05-08T13:26:45Z</time>
      </trkpt>
      <trkpt lat="43.74869" lon="3.56989">
        <ele>189</ele>
        <time>2012-05-08T13:27:47Z</time>
      </trkpt>
      <trkpt lat="43.74865" lon="3.56989">
        <ele>190</ele>
        <time>2012-05-08T13:27:54Z</time>
      </trkpt>
      <trkpt lat="43.7486" lon="3.5699">
        <ele>190</ele>
        <time>2012-05-08T13:28:00Z</time>
      </trkpt>
      <trkpt lat="43.74854" lon="3.56989">
        <ele>190</ele>
        <time>2012-05-08T13:28:05Z</time>
      </trkpt>
      <trkpt lat="43.74844" lon="3.56983">
        <ele>191</ele>
        <time>2012-05-08T13:28:16Z</time>
      </trkpt>
      <trkpt lat="43.74841" lon="3.56978">
        <ele>191</ele>
        <time>2012-05-08T13:28:21Z</time>
      </trkpt>
      <trkpt lat="43.74837" lon="3.56972">
        <ele>193</ele>
        <time>2012-05-08T13:28:26Z</time>
      </trkpt>
      <trkpt lat="43.74831" lon="3.56951">
        <ele>192</ele>
        <time>2012-05-08T13:28:43Z</time>
      </trkpt>
      <trkpt lat="43.7483" lon="3.56945">
        <ele>193</ele>
        <time>2012-05-08T13:28:49Z</time>
      </trkpt>
      <trkpt lat="43.74826" lon="3.56932">
        <ele>189</ele>
        <time>2012-05-08T13:29:12Z</time>
      </trkpt>
      <trkpt lat="43.74821" lon="3.5692">
        <ele>190</ele>
        <time>2012-05-08T13:29:21Z</time>
      </trkpt>
      <trkpt lat="43.74812" lon="3.56903">
        <ele>192</ele>
        <time>2012-05-08T13:29:40Z</time>
      </trkpt>
      <trkpt lat="43.74809" lon="3.56898">
        <ele>192</ele>
        <time>2012-05-08T13:29:45Z</time>
      </trkpt>
      <trkpt lat="43.74808" lon="3.56891">
        <ele>192</ele>
        <time>2012-05-08T13:29:51Z</time>
      </trkpt>
      <trkpt lat="43.74808" lon="3.56884">
        <ele>191</ele>
        <time>2012-05-08T13:29:55Z</time>
      </trkpt>
      <trkpt lat="43.74803" lon="3.56871">
        <ele>184</ele>
        <time>2012-05-08T13:30:11Z</time>
      </trkpt>
      <trkpt lat="43.748" lon="3.56865">
        <ele>182</ele>
        <time>2012-05-08T13:30:18Z</time>
      </trkpt>
      <trkpt lat="43.74797" lon="3.56858">
        <ele>182</ele>
        <time>2012-05-08T13:30:24Z</time>
      </trkpt>
      <trkpt lat="43.74793" lon="3.56853">
        <ele>182</ele>
        <time>2012-05-08T13:30:31Z</time>
      </trkpt>
      <trkpt lat="43.74789" lon="3.56851">
        <ele>182</ele>
        <time>2012-05-08T13:30:39Z</time>
      </trkpt>
      <trkpt lat="43.74785" lon="3.56848">
        <ele>181</ele>
        <time>2012-05-08T13:30:45Z</time>
      </trkpt>
      <trkpt lat="43.74776" lon="3.56847">
        <ele>183</ele>
        <time>2012-05-08T13:30:58Z</time>
      </trkpt>
      <trkpt lat="43.74772" lon="3.56843">
        <ele>182</ele>
        <time>2012-05-08T13:31:05Z</time>
      </trkpt>
      <trkpt lat="43.7475" lon="3.5683">
        <ele>173</ele>
        <time>2012-05-08T13:31:42Z</time>
      </trkpt>
      <trkpt lat="43.74743" lon="3.56828">
        <ele>173</ele>
        <time>2012-05-08T13:32:01Z</time>
      </trkpt>
      <trkpt lat="43.7472" lon="3.56825">
        <ele>164</ele>
        <time>2012-05-08T13:32:37Z</time>
      </trkpt>
      <trkpt lat="43.74715" lon="3.56825">
        <ele>163</ele>
        <time>2012-05-08T13:32:44Z</time>
      </trkpt>
      <trkpt lat="43.7471" lon="3.56827">
        <ele>162</ele>
        <time>2012-05-08T13:32:50Z</time>
      </trkpt>
      <trkpt lat="43.74707" lon="3.56827">
        <ele>162</ele>
        <time>2012-05-08T13:32:56Z</time>
      </trkpt>
      <trkpt lat="43.74695" lon="3.56815">
        <ele>155</ele>
        <time>2012-05-08T13:33:17Z</time>
      </trkpt>
      <trkpt lat="43.74691" lon="3.56812">
        <ele>155</ele>
        <time>2012-05-08T13:33:25Z</time>
      </trkpt>
      <trkpt lat="43.74669" lon="3.56797">
        <ele>150</ele>
        <time>2012-05-08T13:34:01Z</time>
      </trkpt>
      <trkpt lat="43.7466" lon="3.56793">
        <ele>149</ele>
        <time>2012-05-08T13:34:25Z</time>
      </trkpt>
      <trkpt lat="43.74661" lon="3.56788">
        <ele>144</ele>
        <time>2012-05-08T13:34:49Z</time>
      </trkpt>
      <trkpt lat="43.74654" lon="3.56787">
        <ele>141</ele>
        <time>2012-05-08T13:35:00Z</time>
      </trkpt>
      <trkpt lat="43.74649" lon="3.56784">
        <ele>140</ele>
        <time>2012-05-08T13:35:05Z</time>
      </trkpt>
      <trkpt lat="43.74635" lon="3.56778">
        <ele>141</ele>
        <time>2012-05-08T13:35:18Z</time>
      </trkpt>
      <trkpt lat="43.74631" lon="3.56775">
        <ele>141</ele>
        <time>2012-05-08T13:35:25Z</time>
      </trkpt>
      <trkpt lat="43.74622" lon="3.56771">
        <ele>139</ele>
        <time>2012-05-08T13:35:36Z</time>
      </trkpt>
      <trkpt lat="43.74612" lon="3.56767">
        <ele>139</ele>
        <time>2012-05-08T13:35:45Z</time>
      </trkpt>
      <trkpt lat="43.74593" lon="3.56762">
        <ele>135</ele>
        <time>2012-05-08T13:36:10Z</time>
      </trkpt>
      <trkpt lat="43.74583" lon="3.56772">
        <ele>134</ele>
        <time>2012-05-08T13:36:30Z</time>
      </trkpt>
      <trkpt lat="43.7458" lon="3.56767">
        <ele>132</ele>
        <time>2012-05-08T13:36:38Z</time>
      </trkpt>
      <trkpt lat="43.74575" lon="3.56764">
        <ele>130</ele>
        <time>2012-05-08T13:36:43Z</time>
      </trkpt>
      <trkpt lat="43.74571" lon="3.56761">
        <ele>130</ele>
        <time>2012-05-08T13:36:49Z</time>
      </trkpt>
      <trkpt lat="43.74567" lon="3.56758">
        <ele>129</ele>
        <time>2012-05-08T13:36:55Z</time>
      </trkpt>
      <trkpt lat="43.74563" lon="3.56751">
        <ele>128</ele>
        <time>2012-05-08T13:37:00Z</time>
      </trkpt>
      <trkpt lat="43.74561" lon="3.56745">
        <ele>128</ele>
        <time>2012-05-08T13:37:04Z</time>
      </trkpt>
      <trkpt lat="43.74561" lon="3.56738">
        <ele>129</ele>
        <time>2012-05-08T13:37:09Z</time>
      </trkpt>
      <trkpt lat="43.74561" lon="3.56731">
        <ele>128</ele>
        <time>2012-05-08T13:37:15Z</time>
      </trkpt>
      <trkpt lat="43.74557" lon="3.56727">
        <ele>127</ele>
        <time>2012-05-08T13:37:21Z</time>
      </trkpt>
      <trkpt lat="43.74547" lon="3.56722">
        <ele>125</ele>
        <time>2012-05-08T13:37:30Z</time>
      </trkpt>
      <trkpt lat="43.74543" lon="3.56719">
        <ele>125</ele>
        <time>2012-05-08T13:37:35Z</time>
      </trkpt>
      <trkpt lat="43.7453" lon="3.56706">
        <ele>122</ele>
        <time>2012-05-08T13:37:51Z</time>
      </trkpt>
      <trkpt lat="43.74524" lon="3.567">
        <ele>122</ele>
        <time>2012-05-08T13:37:58Z</time>
      </trkpt>
      <trkpt lat="43.74523" lon="3.56693">
        <ele>122</ele>
        <time>2012-05-08T13:38:04Z</time>
      </trkpt>
      <trkpt lat="43.7452" lon="3.56685">
        <ele>121</ele>
        <time>2012-05-08T13:38:12Z</time>
      </trkpt>
      <trkpt lat="43.74515" lon="3.56682">
        <ele>119</ele>
        <time>2012-05-08T13:38:17Z</time>
      </trkpt>
      <trkpt lat="43.74512" lon="3.56677">
        <ele>120</ele>
        <time>2012-05-08T13:38:21Z</time>
      </trkpt>
      <trkpt lat="43.7451" lon="3.56671">
        <ele>121</ele>
        <time>2012-05-08T13:38:29Z</time>
      </trkpt>
      <trkpt lat="43.74501" lon="3.56664">
        <ele>120</ele>
        <time>2012-05-08T13:38:43Z</time>
      </trkpt>
      <trkpt lat="43.74494" lon="3.56656">
        <ele>120</ele>
        <time>2012-05-08T13:38:56Z</time>
      </trkpt>
      <trkpt lat="43.74486" lon="3.56655">
        <ele>119</ele>
        <time>2012-05-08T13:39:08Z</time>
      </trkpt>
      <trkpt lat="43.74471" lon="3.56654">
        <ele>110</ele>
        <time>2012-05-08T13:39:32Z</time>
      </trkpt>
      <trkpt lat="43.74466" lon="3.5665">
        <ele>109</ele>
        <time>2012-05-08T13:39:39Z</time>
      </trkpt>
      <trkpt lat="43.7446" lon="3.56649">
        <ele>107</ele>
        <time>2012-05-08T13:39:52Z</time>
      </trkpt>
      <trkpt lat="43.74454" lon="3.56644">
        <ele>107</ele>
        <time>2012-05-08T13:39:58Z</time>
      </trkpt>
      <trkpt lat="43.74451" lon="3.56639">
        <ele>107</ele>
        <time>2012-05-08T13:40:04Z</time>
      </trkpt>
      <trkpt lat="43.74433" lon="3.56626">
        <ele>101</ele>
        <time>2012-05-08T13:40:34Z</time>
      </trkpt>
      <trkpt lat="43.74428" lon="3.56625">
        <ele>99</ele>
        <time>2012-05-08T13:40:44Z</time>
      </trkpt>
      <trkpt lat="43.74424" lon="3.56624">
        <ele>99</ele>
        <time>2012-05-08T13:40:53Z</time>
      </trkpt>
      <trkpt lat="43.7441" lon="3.56624">
        <ele>92</ele>
        <time>2012-05-08T13:41:22Z</time>
      </trkpt>
      <trkpt lat="43.74405" lon="3.5662">
        <ele>91</ele>
        <time>2012-05-08T13:41:29Z</time>
      </trkpt>
      <trkpt lat="43.74396" lon="3.56616">
        <ele>88</ele>
        <time>2012-05-08T13:41:41Z</time>
      </trkpt>
      <trkpt lat="43.74378" lon="3.56615">
        <ele>81</ele>
        <time>2012-05-08T13:42:12Z</time>
      </trkpt>
      <trkpt lat="43.74375" lon="3.56605">
        <ele>80</ele>
        <time>2012-05-08T13:42:58Z</time>
      </trkpt>
      <trkpt lat="43.74372" lon="3.56599">
        <ele>81</ele>
        <time>2012-05-08T13:43:03Z</time>
      </trkpt>
      <trkpt lat="43.74366" lon="3.56585">
        <ele>80</ele>
        <time>2012-05-08T13:43:13Z</time>
      </trkpt>
      <trkpt lat="43.74359" lon="3.56575">
        <ele>79</ele>
        <time>2012-05-08T13:43:22Z</time>
      </trkpt>
      <trkpt lat="43.74351" lon="3.56559">
        <ele>81</ele>
        <time>2012-05-08T13:43:36Z</time>
      </trkpt>
      <trkpt lat="43.74346" lon="3.56544">
        <ele>80</ele>
        <time>2012-05-08T13:43:48Z</time>
      </trkpt>
      <trkpt lat="43.74346" lon="3.56537">
        <ele>81</ele>
        <time>2012-05-08T13:43:54Z</time>
      </trkpt>
      <trkpt lat="43.74346" lon="3.56528">
        <ele>82</ele>
        <time>2012-05-08T13:44:00Z</time>
      </trkpt>
      <trkpt lat="43.74347" lon="3.5652">
        <ele>81</ele>
        <time>2012-05-08T13:44:06Z</time>
      </trkpt>
      <trkpt lat="43.74354" lon="3.56509">
        <ele>82</ele>
        <time>2012-05-08T13:44:14Z</time>
      </trkpt>
      <trkpt lat="43.74372" lon="3.56488">
        <ele>78</ele>
        <time>2012-05-08T13:44:43Z</time>
      </trkpt>
      <trkpt lat="43.74381" lon="3.56483">
        <ele>78</ele>
        <time>2012-05-08T13:44:49Z</time>
      </trkpt>
      <trkpt lat="43.74386" lon="3.5648">
        <ele>78</ele>
        <time>2012-05-08T13:44:52Z</time>
      </trkpt>
      <trkpt lat="43.74394" lon="3.56472">
        <ele>78</ele>
        <time>2012-05-08T13:44:59Z</time>
      </trkpt>
      <trkpt lat="43.7441" lon="3.56459">
        <ele>82</ele>
        <time>2012-05-08T13:45:15Z</time>
      </trkpt>
      <trkpt lat="43.74419" lon="3.56434">
        <ele>80</ele>
        <time>2012-05-08T13:45:36Z</time>
      </trkpt>
      <trkpt lat="43.74419" lon="3.56426">
        <ele>82</ele>
        <time>2012-05-08T13:45:43Z</time>
      </trkpt>
      <trkpt lat="43.7442" lon="3.56407">
        <ele>82</ele>
        <time>2012-05-08T13:46:07Z</time>
      </trkpt>
      <trkpt lat="43.74422" lon="3.56391">
        <ele>85</ele>
        <time>2012-05-08T13:46:16Z</time>
      </trkpt>
      <trkpt lat="43.74419" lon="3.56388">
        <ele>85</ele>
        <time>2012-05-08T13:46:23Z</time>
      </trkpt>
      <trkpt lat="43.74424" lon="3.56377">
        <ele>83</ele>
        <time>2012-05-08T13:46:39Z</time>
      </trkpt>
      <trkpt lat="43.74427" lon="3.56343">
        <ele>79</ele>
        <time>2012-05-08T13:47:01Z</time>
      </trkpt>
      <trkpt lat="43.74427" lon="3.56328">
        <ele>80</ele>
        <time>2012-05-08T13:47:11Z</time>
      </trkpt>
      <trkpt lat="43.74424" lon="3.56305">
        <ele>77</ele>
        <time>2012-05-08T13:47:27Z</time>
      </trkpt>
      <trkpt lat="43.74423" lon="3.56283">
        <ele>82</ele>
        <time>2012-05-08T13:47:40Z</time>
      </trkpt>
      <trkpt lat="43.74423" lon="3.56269">
        <ele>80</ele>
        <time>2012-05-08T13:47:48Z</time>
      </trkpt>
      <trkpt lat="43.74423" lon="3.56255">
        <ele>80</ele>
        <time>2012-05-08T13:47:56Z</time>
      </trkpt>
      <trkpt lat="43.74423" lon="3.56245">
        <ele>81</ele>
        <time>2012-05-08T13:48:03Z</time>
      </trkpt>
      <trkpt lat="43.74422" lon="3.56233">
        <ele>80</ele>
        <time>2012-05-08T13:48:11Z</time>
      </trkpt>
      <trkpt lat="43.74426" lon="3.56221">
        <ele>82</ele>
        <time>2012-05-08T13:48:19Z</time>
      </trkpt>
    </trkseg>
  </trk>
</gpx>